sensor_id;sensor_type;location;lat;lon;timestamp;P1;durP1;ratioP1;P2;durP2;ratioP2
29576;SDS011;16509;53.862;10.672;2022-07-23T00:00:09;3.08;;;1.25;;
29576;SDS011;16509;53.862;10.672;2022-07-23T00:02:35;1.05;;;1.00;;
29576;SDS011;16509;53.862;10.672;2022-07-23T00:05:01;3.97;;;1.23;;
29576;SDS011;16509;53.862;10.672;2022-07-23T00:07:27;1.88;;;1.02;;
29576;SDS011;16509;53.862;10.672;2022-07-23T00:09:52;4.43;;;1.00;;
29576;SDS011;16509;53.862;10.672;2022-07-23T00:12:18;2.03;;;1.20;;
29576;SDS011;16509;53.862;10.672;2022-07-23T00:14:43;2.85;;;1.23;;
29576;SDS011;16509;53.862;10.672;2022-07-23T00:17:09;2.83;;;1.00;;
29576;SDS011;16509;53.862;10.672;2022-07-23T00:19:35;3.92;;;1.05;;
29576;SDS011;16509;53.862;10.672;2022-07-23T00:22:00;2.80;;;1.10;;
29576;SDS011;16509;53.862;10.672;2022-07-23T00:24:26;3.60;;;1.15;;
29576;SDS011;16509;53.862;10.672;2022-07-23T00:26:51;1.38;;;1.00;;
29576;SDS011;16509;53.862;10.672;2022-07-23T00:29:17;1.60;;;1.20;;
29576;SDS011;16509;53.862;10.672;2022-07-23T00:31:43;3.05;;;0.93;;
29576;SDS011;16509;53.862;10.672;2022-07-23T00:34:08;4.30;;;1.20;;
29576;SDS011;16509;53.862;10.672;2022-07-23T00:36:34;3.38;;;1.10;;
29576;SDS011;16509;53.862;10.672;2022-07-23T00:38:59;5.95;;;1.17;;
29576;SDS011;16509;53.862;10.672;2022-07-23T00:41:26;4.65;;;1.35;;
29576;SDS011;16509;53.862;10.672;2022-07-23T00:43:51;3.05;;;0.90;;
29576;SDS011;16509;53.862;10.672;2022-07-23T00:46:20;3.05;;;1.30;;
29576;SDS011;16509;53.862;10.672;2022-07-23T00:48:46;3.10;;;1.05;;
29576;SDS011;16509;53.862;10.672;2022-07-23T00:51:12;2.22;;;1.35;;
29576;SDS011;16509;53.862;10.672;2022-07-23T00:53:39;3.13;;;1.10;;
29576;SDS011;16509;53.862;10.672;2022-07-23T00:56:05;6.25;;;1.15;;
29576;SDS011;16509;53.862;10.672;2022-07-23T00:58:31;1.48;;;0.95;;
29576;SDS011;16509;53.862;10.672;2022-07-23T01:01:00;1.35;;;1.00;;
29576;SDS011;16509;53.862;10.672;2022-07-23T01:03:25;8.23;;;1.13;;
29576;SDS011;16509;53.862;10.672;2022-07-23T01:05:51;2.33;;;1.00;;
29576;SDS011;16509;53.862;10.672;2022-07-23T01:08:16;2.17;;;1.13;;
29576;SDS011;16509;53.862;10.672;2022-07-23T01:10:42;1.42;;;1.00;;
29576;SDS011;16509;53.862;10.672;2022-07-23T01:13:09;5.30;;;1.08;;
29576;SDS011;16509;53.862;10.672;2022-07-23T01:15:35;2.05;;;1.10;;
29576;SDS011;16509;53.862;10.672;2022-07-23T01:18:02;1.50;;;1.00;;
29576;SDS011;16509;53.862;10.672;2022-07-23T01:20:29;1.30;;;0.85;;
29576;SDS011;16509;53.862;10.672;2022-07-23T01:22:56;2.28;;;1.08;;
29576;SDS011;16509;53.862;10.672;2022-07-23T01:25:22;1.60;;;0.98;;
29576;SDS011;16509;53.862;10.672;2022-07-23T01:27:48;2.47;;;1.08;;
29576;SDS011;16509;53.862;10.672;2022-07-23T01:30:14;5.50;;;1.52;;
29576;SDS011;16509;53.862;10.672;2022-07-23T01:32:40;1.50;;;1.25;;
29576;SDS011;16509;53.862;10.672;2022-07-23T01:35:06;3.20;;;1.05;;
29576;SDS011;16509;53.862;10.672;2022-07-23T01:37:32;5.60;;;1.02;;
29576;SDS011;16509;53.862;10.672;2022-07-23T01:39:58;9.95;;;1.30;;
29576;SDS011;16509;53.862;10.672;2022-07-23T01:42:24;2.53;;;1.15;;
29576;SDS011;16509;53.862;10.672;2022-07-23T01:44:50;6.85;;;1.38;;
29576;SDS011;16509;53.862;10.672;2022-07-23T01:47:16;2.38;;;1.10;;
29576;SDS011;16509;53.862;10.672;2022-07-23T01:49:42;2.25;;;1.20;;
29576;SDS011;16509;53.862;10.672;2022-07-23T01:52:07;2.35;;;1.25;;
29576;SDS011;16509;53.862;10.672;2022-07-23T01:54:37;5.65;;;1.50;;
29576;SDS011;16509;53.862;10.672;2022-07-23T01:57:04;5.15;;;1.20;;
29576;SDS011;16509;53.862;10.672;2022-07-23T01:59:30;1.92;;;1.20;;
29576;SDS011;16509;53.862;10.672;2022-07-23T02:01:56;4.68;;;1.50;;
29576;SDS011;16509;53.862;10.672;2022-07-23T02:04:22;10.35;;;1.40;;
29576;SDS011;16509;53.862;10.672;2022-07-23T02:06:49;3.40;;;1.50;;
29576;SDS011;16509;53.862;10.672;2022-07-23T02:09:15;2.67;;;1.42;;
29576;SDS011;16509;53.862;10.672;2022-07-23T02:11:41;8.10;;;1.35;;
29576;SDS011;16509;53.862;10.672;2022-07-23T02:14:07;1.10;;;1.00;;
29576;SDS011;16509;53.862;10.672;2022-07-23T02:16:32;1.10;;;0.90;;
29576;SDS011;16509;53.862;10.672;2022-07-23T02:18:58;1.83;;;0.98;;
29576;SDS011;16509;53.862;10.672;2022-07-23T02:21:24;1.02;;;0.93;;
29576;SDS011;16509;53.862;10.672;2022-07-23T02:23:49;1.25;;;1.15;;
29576;SDS011;16509;53.862;10.672;2022-07-23T02:26:15;3.75;;;1.25;;
29576;SDS011;16509;53.862;10.672;2022-07-23T02:28:40;3.67;;;1.27;;
29576;SDS011;16509;53.862;10.672;2022-07-23T02:31:06;2.65;;;1.25;;
29576;SDS011;16509;53.862;10.672;2022-07-23T02:33:32;1.42;;;1.20;;
29576;SDS011;16509;53.862;10.672;2022-07-23T02:35:58;2.92;;;1.30;;
29576;SDS011;16509;53.862;10.672;2022-07-23T02:38:24;3.55;;;1.60;;
29576;SDS011;16509;53.862;10.672;2022-07-23T02:40:50;3.95;;;1.30;;
29576;SDS011;16509;53.862;10.672;2022-07-23T02:43:15;6.32;;;1.23;;
29576;SDS011;16509;53.862;10.672;2022-07-23T02:45:41;4.28;;;1.23;;
29576;SDS011;16509;53.862;10.672;2022-07-23T02:48:06;2.25;;;1.40;;
29576;SDS011;16509;53.862;10.672;2022-07-23T02:50:32;2.40;;;1.40;;
29576;SDS011;16509;53.862;10.672;2022-07-23T02:52:58;2.47;;;1.35;;
29576;SDS011;16509;53.862;10.672;2022-07-23T02:55:23;1.88;;;1.40;;
29576;SDS011;16509;53.862;10.672;2022-07-23T02:57:49;7.60;;;1.60;;
29576;SDS011;16509;53.862;10.672;2022-07-23T03:00:15;2.30;;;1.60;;
29576;SDS011;16509;53.862;10.672;2022-07-23T03:02:40;2.65;;;1.30;;
29576;SDS011;16509;53.862;10.672;2022-07-23T03:05:06;2.08;;;1.60;;
29576;SDS011;16509;53.862;10.672;2022-07-23T03:07:32;3.70;;;1.60;;
29576;SDS011;16509;53.862;10.672;2022-07-23T03:09:58;10.13;;;1.75;;
29576;SDS011;16509;53.862;10.672;2022-07-23T03:12:23;7.15;;;1.65;;
29576;SDS011;16509;53.862;10.672;2022-07-23T03:14:49;3.25;;;1.20;;
29576;SDS011;16509;53.862;10.672;2022-07-23T03:17:14;6.53;;;1.70;;
29576;SDS011;16509;53.862;10.672;2022-07-23T03:19:40;2.53;;;1.50;;
29576;SDS011;16509;53.862;10.672;2022-07-23T03:22:05;3.08;;;1.30;;
29576;SDS011;16509;53.862;10.672;2022-07-23T03:24:31;4.35;;;2.03;;
29576;SDS011;16509;53.862;10.672;2022-07-23T03:27:15;3.85;;;1.65;;
29576;SDS011;16509;53.862;10.672;2022-07-23T03:29:41;3.08;;;1.40;;
29576;SDS011;16509;53.862;10.672;2022-07-23T03:32:06;4.72;;;1.40;;
29576;SDS011;16509;53.862;10.672;2022-07-23T03:34:32;1.75;;;1.50;;
29576;SDS011;16509;53.862;10.672;2022-07-23T03:36:58;3.42;;;1.67;;
29576;SDS011;16509;53.862;10.672;2022-07-23T03:39:24;4.35;;;1.38;;
29576;SDS011;16509;53.862;10.672;2022-07-23T03:41:50;3.15;;;1.80;;
29576;SDS011;16509;53.862;10.672;2022-07-23T03:44:17;4.05;;;1.48;;
29576;SDS011;16509;53.862;10.672;2022-07-23T03:46:42;9.27;;;1.73;;
29576;SDS011;16509;53.862;10.672;2022-07-23T03:49:08;3.30;;;1.33;;
29576;SDS011;16509;53.862;10.672;2022-07-23T03:51:33;3.90;;;1.73;;
29576;SDS011;16509;53.862;10.672;2022-07-23T03:53:59;3.35;;;1.60;;
29576;SDS011;16509;53.862;10.672;2022-07-23T03:56:24;5.47;;;1.65;;
29576;SDS011;16509;53.862;10.672;2022-07-23T03:58:51;5.50;;;1.55;;
29576;SDS011;16509;53.862;10.672;2022-07-23T04:01:17;3.67;;;1.48;;
29576;SDS011;16509;53.862;10.672;2022-07-23T04:03:42;3.92;;;1.42;;
29576;SDS011;16509;53.862;10.672;2022-07-23T04:06:08;3.65;;;1.50;;
29576;SDS011;16509;53.862;10.672;2022-07-23T04:08:33;2.55;;;1.50;;
29576;SDS011;16509;53.862;10.672;2022-07-23T04:10:59;2.38;;;1.40;;
29576;SDS011;16509;53.862;10.672;2022-07-23T04:13:24;1.30;;;1.20;;
29576;SDS011;16509;53.862;10.672;2022-07-23T04:15:50;2.38;;;1.42;;
29576;SDS011;16509;53.862;10.672;2022-07-23T04:18:16;1.33;;;1.23;;
29576;SDS011;16509;53.862;10.672;2022-07-23T04:20:42;3.40;;;1.40;;
29576;SDS011;16509;53.862;10.672;2022-07-23T04:23:09;5.43;;;1.63;;
29576;SDS011;16509;53.862;10.672;2022-07-23T04:25:34;3.88;;;1.70;;
29576;SDS011;16509;53.862;10.672;2022-07-23T04:28:00;2.70;;;1.70;;
29576;SDS011;16509;53.862;10.672;2022-07-23T04:30:26;5.82;;;1.77;;
29576;SDS011;16509;53.862;10.672;2022-07-23T04:32:52;3.42;;;1.48;;
29576;SDS011;16509;53.862;10.672;2022-07-23T04:35:17;9.02;;;1.50;;
29576;SDS011;16509;53.862;10.672;2022-07-23T04:37:43;3.38;;;1.70;;
29576;SDS011;16509;53.862;10.672;2022-07-23T04:40:09;2.53;;;1.58;;
29576;SDS011;16509;53.862;10.672;2022-07-23T04:42:35;1.77;;;1.38;;
29576;SDS011;16509;53.862;10.672;2022-07-23T04:45:01;4.78;;;1.30;;
29576;SDS011;16509;53.862;10.672;2022-07-23T04:47:28;3.85;;;1.60;;
29576;SDS011;16509;53.862;10.672;2022-07-23T04:49:54;2.95;;;1.20;;
29576;SDS011;16509;53.862;10.672;2022-07-23T04:52:20;2.50;;;1.40;;
29576;SDS011;16509;53.862;10.672;2022-07-23T04:54:45;4.97;;;1.50;;
29576;SDS011;16509;53.862;10.672;2022-07-23T04:57:11;3.42;;;1.48;;
29576;SDS011;16509;53.862;10.672;2022-07-23T04:59:36;1.40;;;1.20;;
29576;SDS011;16509;53.862;10.672;2022-07-23T05:02:02;3.53;;;1.35;;
29576;SDS011;16509;53.862;10.672;2022-07-23T05:04:27;1.17;;;1.08;;
29576;SDS011;16509;53.862;10.672;2022-07-23T05:06:53;4.03;;;1.52;;
29576;SDS011;16509;53.862;10.672;2022-07-23T05:09:19;1.20;;;1.10;;
29576;SDS011;16509;53.862;10.672;2022-07-23T05:11:44;3.28;;;1.42;;
29576;SDS011;16509;53.862;10.672;2022-07-23T05:14:10;4.00;;;1.40;;
29576;SDS011;16509;53.862;10.672;2022-07-23T05:16:37;3.83;;;1.35;;
29576;SDS011;16509;53.862;10.672;2022-07-23T05:19:03;5.90;;;1.40;;
29576;SDS011;16509;53.862;10.672;2022-07-23T05:21:29;1.60;;;1.15;;
29576;SDS011;16509;53.862;10.672;2022-07-23T05:23:54;2.13;;;1.10;;
29576;SDS011;16509;53.862;10.672;2022-07-23T05:26:20;1.70;;;1.35;;
29576;SDS011;16509;53.862;10.672;2022-07-23T05:28:46;4.78;;;1.10;;
29576;SDS011;16509;53.862;10.672;2022-07-23T05:31:11;1.52;;;1.42;;
29576;SDS011;16509;53.862;10.672;2022-07-23T05:33:37;2.60;;;1.25;;
29576;SDS011;16509;53.862;10.672;2022-07-23T05:36:03;1.85;;;1.20;;
29576;SDS011;16509;53.862;10.672;2022-07-23T05:38:29;5.32;;;2.15;;
29576;SDS011;16509;53.862;10.672;2022-07-23T05:40:55;4.10;;;1.40;;
29576;SDS011;16509;53.862;10.672;2022-07-23T05:43:21;3.95;;;1.40;;
29576;SDS011;16509;53.862;10.672;2022-07-23T05:45:46;3.28;;;1.20;;
29576;SDS011;16509;53.862;10.672;2022-07-23T05:48:12;5.55;;;1.55;;
29576;SDS011;16509;53.862;10.672;2022-07-23T05:50:37;5.13;;;1.35;;
29576;SDS011;16509;53.862;10.672;2022-07-23T05:53:03;3.83;;;1.50;;
29576;SDS011;16509;53.862;10.672;2022-07-23T05:55:29;3.78;;;1.23;;
29576;SDS011;16509;53.862;10.672;2022-07-23T05:57:56;1.73;;;1.20;;
29576;SDS011;16509;53.862;10.672;2022-07-23T06:00:22;4.00;;;2.17;;
29576;SDS011;16509;53.862;10.672;2022-07-23T06:02:48;2.63;;;1.25;;
29576;SDS011;16509;53.862;10.672;2022-07-23T06:05:14;4.25;;;1.30;;
29576;SDS011;16509;53.862;10.672;2022-07-23T06:07:39;4.07;;;1.20;;
29576;SDS011;16509;53.862;10.672;2022-07-23T06:10:06;3.08;;;1.23;;
29576;SDS011;16509;53.862;10.672;2022-07-23T06:12:32;4.10;;;1.08;;
29576;SDS011;16509;53.862;10.672;2022-07-23T06:15:03;4.03;;;1.45;;
29576;SDS011;16509;53.862;10.672;2022-07-23T06:17:29;1.10;;;1.00;;
29576;SDS011;16509;53.862;10.672;2022-07-23T06:19:55;2.70;;;1.23;;
29576;SDS011;16509;53.862;10.672;2022-07-23T06:22:21;2.13;;;1.15;;
29576;SDS011;16509;53.862;10.672;2022-07-23T06:24:47;3.20;;;1.13;;
29576;SDS011;16509;53.862;10.672;2022-07-23T06:27:13;2.75;;;1.27;;
29576;SDS011;16509;53.862;10.672;2022-07-23T06:29:38;1.75;;;1.15;;
29576;SDS011;16509;53.862;10.672;2022-07-23T06:32:05;5.93;;;1.38;;
29576;SDS011;16509;53.862;10.672;2022-07-23T06:34:31;2.15;;;1.20;;
29576;SDS011;16509;53.862;10.672;2022-07-23T06:36:57;5.72;;;1.27;;
29576;SDS011;16509;53.862;10.672;2022-07-23T06:39:23;2.10;;;0.98;;
29576;SDS011;16509;53.862;10.672;2022-07-23T06:41:48;3.95;;;1.33;;
29576;SDS011;16509;53.862;10.672;2022-07-23T06:44:14;1.67;;;1.00;;
29576;SDS011;16509;53.862;10.672;2022-07-23T06:46:39;1.10;;;0.93;;
29576;SDS011;16509;53.862;10.672;2022-07-23T06:49:05;4.18;;;1.00;;
29576;SDS011;16509;53.862;10.672;2022-07-23T06:51:30;6.22;;;1.20;;
29576;SDS011;16509;53.862;10.672;2022-07-23T06:53:56;5.00;;;0.82;;
29576;SDS011;16509;53.862;10.672;2022-07-23T06:56:22;2.78;;;0.80;;
29576;SDS011;16509;53.862;10.672;2022-07-23T06:58:47;4.22;;;0.90;;
29576;SDS011;16509;53.862;10.672;2022-07-23T07:01:13;1.05;;;0.75;;
29576;SDS011;16509;53.862;10.672;2022-07-23T07:03:38;1.90;;;0.80;;
29576;SDS011;16509;53.862;10.672;2022-07-23T07:06:04;3.03;;;1.55;;
29576;SDS011;16509;53.862;10.672;2022-07-23T07:08:29;4.68;;;1.10;;
29576;SDS011;16509;53.862;10.672;2022-07-23T07:10:55;4.57;;;1.00;;
29576;SDS011;16509;53.862;10.672;2022-07-23T07:13:21;1.95;;;1.10;;
29576;SDS011;16509;53.862;10.672;2022-07-23T07:15:46;1.98;;;1.10;;
29576;SDS011;16509;53.862;10.672;2022-07-23T07:18:12;1.20;;;1.10;;
29576;SDS011;16509;53.862;10.672;2022-07-23T07:20:37;2.15;;;1.00;;
29576;SDS011;16509;53.862;10.672;2022-07-23T07:23:03;7.55;;;1.48;;
29576;SDS011;16509;53.862;10.672;2022-07-23T07:25:28;1.40;;;1.30;;
29576;SDS011;16509;53.862;10.672;2022-07-23T07:27:54;3.72;;;1.20;;
29576;SDS011;16509;53.862;10.672;2022-07-23T07:30:19;3.58;;;1.88;;
29576;SDS011;16509;53.862;10.672;2022-07-23T07:32:45;4.57;;;1.65;;
29576;SDS011;16509;53.862;10.672;2022-07-23T07:35:11;2.45;;;1.50;;
29576;SDS011;16509;53.862;10.672;2022-07-23T07:37:36;4.95;;;1.30;;
29576;SDS011;16509;53.862;10.672;2022-07-23T07:40:02;5.32;;;1.48;;
29576;SDS011;16509;53.862;10.672;2022-07-23T07:42:28;3.35;;;1.48;;
29576;SDS011;16509;53.862;10.672;2022-07-23T07:44:54;5.55;;;1.98;;
29576;SDS011;16509;53.862;10.672;2022-07-23T07:47:19;2.53;;;1.92;;
29576;SDS011;16509;53.862;10.672;2022-07-23T07:49:45;3.13;;;1.60;;
29576;SDS011;16509;53.862;10.672;2022-07-23T07:52:10;2.33;;;1.38;;
29576;SDS011;16509;53.862;10.672;2022-07-23T07:54:36;4.60;;;1.38;;
29576;SDS011;16509;53.862;10.672;2022-07-23T07:57:02;1.88;;;1.30;;
29576;SDS011;16509;53.862;10.672;2022-07-23T07:59:27;1.67;;;1.00;;
29576;SDS011;16509;53.862;10.672;2022-07-23T08:01:53;7.43;;;0.90;;
29576;SDS011;16509;53.862;10.672;2022-07-23T08:04:19;7.25;;;1.85;;
29576;SDS011;16509;53.862;10.672;2022-07-23T08:06:44;4.38;;;1.40;;
29576;SDS011;16509;53.862;10.672;2022-07-23T08:09:11;1.20;;;1.13;;
29576;SDS011;16509;53.862;10.672;2022-07-23T08:11:36;5.78;;;1.10;;
29576;SDS011;16509;53.862;10.672;2022-07-23T08:14:02;1.38;;;1.02;;
29576;SDS011;16509;53.862;10.672;2022-07-23T08:16:28;2.28;;;1.23;;
29576;SDS011;16509;53.862;10.672;2022-07-23T08:18:53;1.10;;;1.00;;
29576;SDS011;16509;53.862;10.672;2022-07-23T08:21:19;1.20;;;0.80;;
29576;SDS011;16509;53.862;10.672;2022-07-23T08:23:45;1.58;;;1.00;;
29576;SDS011;16509;53.862;10.672;2022-07-23T08:26:10;0.63;;;0.60;;
29576;SDS011;16509;53.862;10.672;2022-07-23T08:28:37;1.17;;;0.77;;
29576;SDS011;16509;53.862;10.672;2022-07-23T08:31:02;2.50;;;0.70;;
29576;SDS011;16509;53.862;10.672;2022-07-23T08:33:30;1.60;;;0.85;;
29576;SDS011;16509;53.862;10.672;2022-07-23T08:35:56;3.80;;;0.75;;
29576;SDS011;16509;53.862;10.672;2022-07-23T08:38:22;1.77;;;1.08;;
29576;SDS011;16509;53.862;10.672;2022-07-23T08:40:49;1.83;;;0.70;;
29576;SDS011;16509;53.862;10.672;2022-07-23T08:43:19;2.10;;;0.80;;
29576;SDS011;16509;53.862;10.672;2022-07-23T08:45:54;1.10;;;0.73;;
29576;SDS011;16509;53.862;10.672;2022-07-23T08:48:23;2.33;;;0.70;;
29576;SDS011;16509;53.862;10.672;2022-07-23T08:51:08;1.92;;;0.80;;
29576;SDS011;16509;53.862;10.672;2022-07-23T08:53:35;1.25;;;1.00;;
29576;SDS011;16509;53.862;10.672;2022-07-23T08:56:03;1.42;;;0.63;;
29576;SDS011;16509;53.862;10.672;2022-07-23T08:58:30;0.93;;;0.60;;
29576;SDS011;16509;53.862;10.672;2022-07-23T09:00:56;2.05;;;0.63;;
29576;SDS011;16509;53.862;10.672;2022-07-23T09:03:26;7.25;;;1.40;;
29576;SDS011;16509;53.862;10.672;2022-07-23T09:05:54;3.17;;;0.60;;
29576;SDS011;16509;53.862;10.672;2022-07-23T09:08:22;1.08;;;0.73;;
29576;SDS011;16509;53.862;10.672;2022-07-23T09:13:24;1.90;;;0.73;;
29576;SDS011;16509;53.862;10.672;2022-07-23T09:18:32;1.63;;;0.88;;
29576;SDS011;16509;53.862;10.672;2022-07-23T09:21:26;1.58;;;0.70;;
29576;SDS011;16509;53.862;10.672;2022-07-23T09:23:58;4.97;;;1.48;;
29576;SDS011;16509;53.862;10.672;2022-07-23T09:37:10;1.38;;;0.68;;
29576;SDS011;16509;53.862;10.672;2022-07-23T09:39:44;0.60;;;0.60;;
29576;SDS011;16509;53.862;10.672;2022-07-23T09:44:45;1.08;;;0.77;;
29576;SDS011;16509;53.862;10.672;2022-07-23T09:47:15;3.72;;;0.98;;
29576;SDS011;16509;53.862;10.672;2022-07-23T09:52:34;3.70;;;1.60;;
29576;SDS011;16509;53.862;10.672;2022-07-23T09:55:14;1.30;;;0.73;;
29576;SDS011;16509;53.862;10.672;2022-07-23T09:57:41;3.35;;;0.70;;
29576;SDS011;16509;53.862;10.672;2022-07-23T10:00:12;2.63;;;0.70;;
29576;SDS011;16509;53.862;10.672;2022-07-23T10:02:38;4.30;;;0.65;;
29576;SDS011;16509;53.862;10.672;2022-07-23T10:05:05;2.08;;;0.60;;
29576;SDS011;16509;53.862;10.672;2022-07-23T10:07:33;2.85;;;0.70;;
29576;SDS011;16509;53.862;10.672;2022-07-23T10:10:00;2.33;;;0.70;;
29576;SDS011;16509;53.862;10.672;2022-07-23T10:12:27;3.00;;;0.70;;
29576;SDS011;16509;53.862;10.672;2022-07-23T10:15:02;1.65;;;0.60;;
29576;SDS011;16509;53.862;10.672;2022-07-23T10:17:29;2.92;;;0.70;;
29576;SDS011;16509;53.862;10.672;2022-07-23T10:19:55;3.28;;;0.68;;
29576;SDS011;16509;53.862;10.672;2022-07-23T10:22:22;0.90;;;0.70;;
29576;SDS011;16509;53.862;10.672;2022-07-23T10:35:11;3.63;;;0.57;;
29576;SDS011;16509;53.862;10.672;2022-07-23T10:37:42;6.13;;;0.93;;
29576;SDS011;16509;53.862;10.672;2022-07-23T10:40:16;3.60;;;0.55;;
29576;SDS011;16509;53.862;10.672;2022-07-23T10:42:45;1.95;;;1.00;;
29576;SDS011;16509;53.862;10.672;2022-07-23T10:45:24;1.08;;;0.60;;
29576;SDS011;16509;53.862;10.672;2022-07-23T10:47:53;2.20;;;0.57;;
29576;SDS011;16509;53.862;10.672;2022-07-23T10:57:58;2.03;;;0.50;;
29576;SDS011;16509;53.862;10.672;2022-07-23T11:00:26;3.17;;;0.90;;
29576;SDS011;16509;53.862;10.672;2022-07-23T11:02:59;1.02;;;0.70;;
29576;SDS011;16509;53.862;10.672;2022-07-23T11:05:48;1.00;;;0.70;;
29576;SDS011;16509;53.862;10.672;2022-07-23T11:08:13;2.63;;;0.60;;
29576;SDS011;16509;53.862;10.672;2022-07-23T11:32:01;2.00;;;0.80;;
29576;SDS011;16509;53.862;10.672;2022-07-23T11:34:31;1.90;;;0.85;;
29576;SDS011;16509;53.862;10.672;2022-07-23T11:37:04;4.13;;;0.70;;
29576;SDS011;16509;53.862;10.672;2022-07-23T11:39:32;5.57;;;0.63;;
29576;SDS011;16509;53.862;10.672;2022-07-23T11:41:58;2.53;;;0.95;;
29576;SDS011;16509;53.862;10.672;2022-07-23T11:46:55;2.05;;;0.60;;
29576;SDS011;16509;53.862;10.672;2022-07-23T11:49:25;0.68;;;0.68;;
29576;SDS011;16509;53.862;10.672;2022-07-23T11:54:32;1.27;;;0.75;;
29576;SDS011;16509;53.862;10.672;2022-07-23T11:56:59;0.80;;;0.80;;
29576;SDS011;16509;53.862;10.672;2022-07-23T11:59:26;3.38;;;0.70;;
29576;SDS011;16509;53.862;10.672;2022-07-23T12:01:57;2.63;;;0.73;;
29576;SDS011;16509;53.862;10.672;2022-07-23T12:04:25;0.60;;;0.60;;
29576;SDS011;16509;53.862;10.672;2022-07-23T12:07:01;1.60;;;0.73;;
29576;SDS011;16509;53.862;10.672;2022-07-23T12:09:27;1.13;;;0.60;;
29576;SDS011;16509;53.862;10.672;2022-07-23T12:12:00;2.05;;;0.55;;
29576;SDS011;16509;53.862;10.672;2022-07-23T12:14:26;1.85;;;0.38;;
29576;SDS011;16509;53.862;10.672;2022-07-23T12:17:10;2.08;;;0.45;;
29576;SDS011;16509;53.862;10.672;2022-07-23T12:19:35;2.90;;;0.40;;
29576;SDS011;16509;53.862;10.672;2022-07-23T12:22:01;0.47;;;0.45;;
29576;SDS011;16509;53.862;10.672;2022-07-23T12:24:27;2.15;;;0.63;;
29576;SDS011;16509;53.862;10.672;2022-07-23T12:27:09;3.90;;;0.80;;
29576;SDS011;16509;53.862;10.672;2022-07-23T12:29:39;1.20;;;0.60;;
29576;SDS011;16509;53.862;10.672;2022-07-23T12:32:18;1.45;;;0.68;;
29576;SDS011;16509;53.862;10.672;2022-07-23T12:37:28;2.67;;;0.70;;
29576;SDS011;16509;53.862;10.672;2022-07-23T12:40:17;2.53;;;0.70;;
29576;SDS011;16509;53.862;10.672;2022-07-23T12:42:45;2.17;;;0.73;;
29576;SDS011;16509;53.862;10.672;2022-07-23T12:45:12;0.50;;;0.50;;
29576;SDS011;16509;53.862;10.672;2022-07-23T12:53:14;1.05;;;0.68;;
29576;SDS011;16509;53.862;10.672;2022-07-23T12:55:43;2.85;;;0.75;;
29576;SDS011;16509;53.862;10.672;2022-07-23T12:58:20;2.63;;;0.70;;
29576;SDS011;16509;53.862;10.672;2022-07-23T13:05:57;1.15;;;0.63;;
29576;SDS011;16509;53.862;10.672;2022-07-23T13:08:24;1.52;;;0.73;;
29576;SDS011;16509;53.862;10.672;2022-07-23T13:10:51;1.92;;;0.50;;
29576;SDS011;16509;53.862;10.672;2022-07-23T13:13:20;2.60;;;0.60;;
29576;SDS011;16509;53.862;10.672;2022-07-23T13:15:47;1.30;;;0.50;;
29576;SDS011;16509;53.862;10.672;2022-07-23T13:18:13;1.38;;;0.80;;
29576;SDS011;16509;53.862;10.672;2022-07-23T13:20:39;3.95;;;0.70;;
29576;SDS011;16509;53.862;10.672;2022-07-23T13:23:06;0.60;;;0.60;;
29576;SDS011;16509;53.862;10.672;2022-07-23T13:25:32;1.85;;;0.80;;
29576;SDS011;16509;53.862;10.672;2022-07-23T13:27:58;0.88;;;0.60;;
29576;SDS011;16509;53.862;10.672;2022-07-23T13:30:24;3.83;;;0.60;;
29576;SDS011;16509;53.862;10.672;2022-07-23T13:32:50;0.88;;;0.55;;
29576;SDS011;16509;53.862;10.672;2022-07-23T13:35:17;2.00;;;0.60;;
29576;SDS011;16509;53.862;10.672;2022-07-23T13:37:43;2.33;;;0.75;;
29576;SDS011;16509;53.862;10.672;2022-07-23T13:40:09;1.08;;;0.68;;
29576;SDS011;16509;53.862;10.672;2022-07-23T13:42:41;0.98;;;0.60;;
29576;SDS011;16509;53.862;10.672;2022-07-23T13:45:06;1.20;;;0.57;;
29576;SDS011;16509;53.862;10.672;2022-07-23T13:47:33;1.77;;;0.55;;
29576;SDS011;16509;53.862;10.672;2022-07-23T13:49:59;1.02;;;0.70;;
29576;SDS011;16509;53.862;10.672;2022-07-23T13:52:28;2.83;;;0.65;;
29576;SDS011;16509;53.862;10.672;2022-07-23T13:54:54;5.90;;;1.15;;
29576;SDS011;16509;53.862;10.672;2022-07-23T13:57:19;2.85;;;0.52;;
29576;SDS011;16509;53.862;10.672;2022-07-23T13:59:45;0.90;;;0.50;;
29576;SDS011;16509;53.862;10.672;2022-07-23T14:02:10;3.92;;;2.08;;
29576;SDS011;16509;53.862;10.672;2022-07-23T14:04:41;0.80;;;0.68;;
29576;SDS011;16509;53.862;10.672;2022-07-23T14:07:07;0.70;;;0.70;;
29576;SDS011;16509;53.862;10.672;2022-07-23T14:09:33;3.75;;;0.70;;
29576;SDS011;16509;53.862;10.672;2022-07-23T14:11:59;1.17;;;0.52;;
29576;SDS011;16509;53.862;10.672;2022-07-23T14:14:25;2.20;;;0.77;;
29576;SDS011;16509;53.862;10.672;2022-07-23T14:16:50;1.00;;;0.65;;
29576;SDS011;16509;53.862;10.672;2022-07-23T14:19:16;1.70;;;0.73;;
29576;SDS011;16509;53.862;10.672;2022-07-23T14:21:42;1.02;;;0.60;;
29576;SDS011;16509;53.862;10.672;2022-07-23T14:24:08;1.92;;;0.80;;
29576;SDS011;16509;53.862;10.672;2022-07-23T14:26:33;2.42;;;0.80;;
29576;SDS011;16509;53.862;10.672;2022-07-23T14:29:01;1.63;;;0.65;;
29576;SDS011;16509;53.862;10.672;2022-07-23T14:31:26;0.57;;;0.50;;
29576;SDS011;16509;53.862;10.672;2022-07-23T14:33:52;2.72;;;0.52;;
29576;SDS011;16509;53.862;10.672;2022-07-23T14:36:18;2.38;;;0.50;;
29576;SDS011;16509;53.862;10.672;2022-07-23T14:38:43;2.22;;;0.77;;
29576;SDS011;16509;53.862;10.672;2022-07-23T14:41:09;6.82;;;0.90;;
29576;SDS011;16509;53.862;10.672;2022-07-23T14:43:35;2.03;;;0.80;;
29576;SDS011;16509;53.862;10.672;2022-07-23T14:46:01;0.90;;;0.60;;
29576;SDS011;16509;53.862;10.672;2022-07-23T14:48:27;1.77;;;0.90;;
29576;SDS011;16509;53.862;10.672;2022-07-23T14:50:52;2.40;;;0.80;;
29576;SDS011;16509;53.862;10.672;2022-07-23T14:53:18;1.40;;;0.82;;
29576;SDS011;16509;53.862;10.672;2022-07-23T14:55:44;0.93;;;0.70;;
29576;SDS011;16509;53.862;10.672;2022-07-23T14:58:10;1.25;;;0.80;;
29576;SDS011;16509;53.862;10.672;2022-07-23T15:00:36;1.48;;;0.70;;
29576;SDS011;16509;53.862;10.672;2022-07-23T15:03:01;1.17;;;0.60;;
29576;SDS011;16509;53.862;10.672;2022-07-23T15:05:27;1.45;;;0.63;;
29576;SDS011;16509;53.862;10.672;2022-07-23T15:07:54;2.83;;;0.80;;
29576;SDS011;16509;53.862;10.672;2022-07-23T15:10:20;1.77;;;0.65;;
29576;SDS011;16509;53.862;10.672;2022-07-23T15:12:45;1.58;;;0.80;;
29576;SDS011;16509;53.862;10.672;2022-07-23T15:15:11;2.85;;;0.70;;
29576;SDS011;16509;53.862;10.672;2022-07-23T15:17:38;0.60;;;0.60;;
29576;SDS011;16509;53.862;10.672;2022-07-23T15:20:04;1.70;;;0.60;;
29576;SDS011;16509;53.862;10.672;2022-07-23T15:22:30;0.52;;;0.52;;
29576;SDS011;16509;53.862;10.672;2022-07-23T15:24:55;1.17;;;0.60;;
29576;SDS011;16509;53.862;10.672;2022-07-23T15:27:21;1.48;;;0.60;;
29576;SDS011;16509;53.862;10.672;2022-07-23T15:29:46;2.47;;;0.60;;
29576;SDS011;16509;53.862;10.672;2022-07-23T15:32:12;3.03;;;0.80;;
29576;SDS011;16509;53.862;10.672;2022-07-23T15:34:38;0.70;;;0.68;;
29576;SDS011;16509;53.862;10.672;2022-07-23T15:37:04;1.88;;;0.95;;
29576;SDS011;16509;53.862;10.672;2022-07-23T15:39:32;0.68;;;0.65;;
29576;SDS011;16509;53.862;10.672;2022-07-23T15:41:59;2.10;;;0.70;;
29576;SDS011;16509;53.862;10.672;2022-07-23T15:44:25;2.65;;;0.82;;
29576;SDS011;16509;53.862;10.672;2022-07-23T15:46:51;1.83;;;0.90;;
29576;SDS011;16509;53.862;10.672;2022-07-23T15:49:17;0.65;;;0.65;;